Time;durP1;ratioP1;P1;durP2;ratioP2;P2;SDS_P1;SDS_P2;PMS_P1;PMS_P2;Temp;Humidity;BMP_temperature;BMP_pressure;BME280_temperature;BME280_humidity;BME280_pressure;Samples;Min_cycle;Max_cycle;Signal;HPM_P1;HPM_P2
2023/11/29 00:00:16;;;;;;;4.85;2.67;;;0.50;99.90;;;;;;4996126;28;20429;-83
2023/11/29 00:02:41;;;;;;;5.55;3.17;;;0.50;99.90;;;;;;4993334;28;20038;-88
2023/11/29 00:05:08;;;;;;;4.93;3.25;;;0.50;99.90;;;;;;5008180;28;20037;-86
2023/11/29 00:07:34;;;;;;;4.97;2.60;;;0.50;99.90;;;;;;4993771;28;20038;-87
2023/11/29 00:10:00;;;;;;;3.53;1.20;;;0.50;99.90;;;;;;5008380;28;20393;-92
2023/11/29 00:12:26;;;;;;;5.43;3.95;;;0.50;99.90;;;;;;5008549;28;20026;-95
2023/11/29 00:14:51;;;;;;;6.07;4.25;;;0.50;99.90;;;;;;5001610;28;20054;-86
2023/11/29 00:17:17;;;;;;;8.02;5.15;;;0.50;99.90;;;;;;5010222;28;20022;-84
2023/11/29 00:19:43;;;;;;;6.28;4.35;;;0.50;99.90;;;;;;5009905;28;20107;-82
2023/11/29 00:22:12;;;;;;;5.95;3.92;;;0.50;99.90;;;;;;5004307;28;20025;-92
2023/11/29 00:24:37;;;;;;;5.78;3.95;;;0.50;99.90;;;;;;5007364;28;20124;-87
2023/11/29 00:27:06;;;;;;;4.53;2.78;;;0.50;99.90;;;;;;5002191;28;20121;-87
2023/11/29 00:29:32;;;;;;;8.98;5.15;;;0.60;99.90;;;;;;5007413;28;20083;-86
2023/11/29 00:31:59;;;;;;;5.28;3.95;;;0.60;99.90;;;;;;5010264;28;20117;-89
2023/11/29 00:34:24;;;;;;;7.75;5.30;;;0.60;99.90;;;;;;5011449;28;20092;-86
2023/11/29 00:36:51;;;;;;;7.63;4.35;;;0.70;99.90;;;;;;4996467;28;20026;-96
2023/11/29 00:39:18;;;;;;;11.45;7.47;;;0.60;99.90;;;;;;5009649;28;20092;-87
2023/11/29 00:41:43;;;;;;;7.63;6.15;;;0.70;99.90;;;;;;4996632;28;20033;-87
2023/11/29 00:44:09;;;;;;;10.75;6.95;;;0.70;99.90;;;;;;5016084;28;20053;-95
2023/11/29 00:46:35;;;;;;;9.15;6.18;;;0.70;99.90;;;;;;5019132;28;20037;-95
2023/11/29 00:49:02;;;;;;;7.53;4.65;;;0.70;99.90;;;;;;5000650;28;20035;-93
2023/11/29 00:51:27;;;;;;;7.95;5.43;;;0.70;99.90;;;;;;4997603;28;20036;-86
2023/11/29 00:53:53;;;;;;;7.43;3.85;;;0.70;99.90;;;;;;5008912;28;20499;-85
2023/11/29 00:56:19;;;;;;;9.13;5.70;;;0.70;99.90;;;;;;4991709;28;20030;-85
2023/11/29 00:58:44;;;;;;;7.97;5.05;;;0.70;99.90;;;;;;4994722;28;20026;-90
2023/11/29 01:01:10;;;;;;;8.43;5.88;;;0.70;99.90;;;;;;4995681;28;20034;-92
2023/11/29 01:03:35;;;;;;;7.88;4.32;;;0.70;99.90;;;;;;5005777;28;20478;-90
2023/11/29 01:06:02;;;;;;;9.55;5.07;;;0.70;99.90;;;;;;5004952;28;20029;-88
2023/11/29 01:08:27;;;;;;;13.52;9.50;;;0.80;99.90;;;;;;4991898;28;20030;-91
2023/11/29 01:10:53;;;;;;;11.02;7.65;;;0.80;99.90;;;;;;5009481;28;20037;-85
2023/11/29 01:13:20;;;;;;;8.80;5.88;;;0.80;99.90;;;;;;4985829;28;20049;-85
2023/11/29 01:15:48;;;;;;;8.52;5.32;;;0.80;99.90;;;;;;5007135;28;20031;-89
2023/11/29 01:18:16;;;;;;;5.30;3.53;;;0.80;99.90;;;;;;5011223;28;20068;-85
2023/11/29 01:20:42;;;;;;;6.47;2.90;;;0.80;99.90;;;;;;4988806;28;20080;-85
2023/11/29 01:23:09;;;;;;;4.40;2.97;;;0.80;99.90;;;;;;5002692;28;20497;-86
2023/11/29 01:25:35;;;;;;;3.30;1.92;;;0.80;99.90;;;;;;4987557;28;20038;-86
2023/11/29 01:28:03;;;;;;;5.25;3.25;;;0.80;99.90;;;;;;5005521;28;20026;-85
2023/11/29 01:30:29;;;;;;;4.18;2.45;;;0.90;99.90;;;;;;4991058;28;20029;-88
2023/11/29 01:32:55;;;;;;;3.50;2.25;;;0.80;99.90;;;;;;5002322;28;20053;-86
2023/11/29 01:35:20;;;;;;;7.18;5.60;;;0.80;99.90;;;;;;5002955;28;20061;-85
2023/11/29 01:37:46;;;;;;;9.68;6.85;;;0.90;99.90;;;;;;4988488;28;20022;-87
2023/11/29 01:40:12;;;;;;;9.43;6.88;;;0.90;99.90;;;;;;5002395;28;20072;-88
2023/11/29 01:42:38;;;;;;;8.80;7.15;;;0.90;99.90;;;;;;5005330;28;20049;-88
2023/11/29 01:45:04;;;;;;;11.18;9.25;;;0.80;99.90;;;;;;5010049;28;20058;-85
2023/11/29 01:47:34;;;;;;;9.80;7.70;;;0.90;99.90;;;;;;5019205;28;20033;-88
2023/11/29 01:50:07;;;;;;;10.25;7.50;;;0.80;99.90;;;;;;4987646;28;20034;-87
2023/11/29 01:52:35;;;;;;;9.05;7.47;;;0.80;99.90;;;;;;4991960;28;20037;-83
2023/11/29 01:55:01;;;;;;;10.43;8.35;;;0.80;99.90;;;;;;4993130;28;20390;-85
2023/11/29 01:57:27;;;;;;;8.90;7.43;;;0.80;99.90;;;;;;5003911;28;20022;-87
2023/11/29 01:59:53;;;;;;;9.85;7.72;;;0.80;99.90;;;;;;4987201;28;20144;-87
2023/11/29 02:02:20;;;;;;;10.10;7.38;;;0.90;99.90;;;;;;5001904;28;20026;-89
2023/11/29 02:04:46;;;;;;;9.52;6.60;;;1.00;99.90;;;;;;4991746;28;20030;-88
2023/11/29 02:07:12;;;;;;;8.02;5.80;;;1.10;99.90;;;;;;4992205;28;20034;-85
2023/11/29 02:09:39;;;;;;;7.47;5.72;;;1.10;99.90;;;;;;5002036;28;20037;-88
2023/11/29 02:12:07;;;;;;;5.63;4.55;;;1.10;99.90;;;;;;5005937;28;20486;-88
2023/11/29 02:14:41;;;;;;;9.18;6.63;;;1.10;99.90;;;;;;5003466;28;20038;-84
2023/11/29 02:17:08;;;;;;;8.82;5.40;;;1.20;99.90;;;;;;5008061;28;20026;-86
2023/11/29 02:19:36;;;;;;;6.45;5.50;;;1.20;99.90;;;;;;5010676;28;20453;-88
2023/11/29 02:22:02;;;;;;;5.30;4.80;;;1.20;99.90;;;;;;5003979;28;20474;-86
2023/11/29 02:24:35;;;;;;;5.72;4.00;;;1.20;99.90;;;;;;5018199;28;20069;-82
2023/11/29 02:27:01;;;;;;;5.15;3.28;;;1.30;99.90;;;;;;4988322;28;20021;-83
2023/11/29 02:29:26;;;;;;;4.57;3.72;;;1.30;99.90;;;;;;5008027;28;20141;-84
2023/11/29 02:31:52;;;;;;;5.85;4.50;;;1.30;99.90;;;;;;5001280;28;20049;-83
2023/11/29 02:34:17;;;;;;;4.03;3.50;;;1.30;99.90;;;;;;4988874;28;20034;-85
2023/11/29 02:36:43;;;;;;;3.22;2.70;;;1.20;99.90;;;;;;4988962;28;20030;-87
2023/11/29 02:39:09;;;;;;;4.25;2.58;;;1.20;99.90;;;;;;4992016;28;20036;-81
2023/11/29 02:41:38;;;;;;;4.75;4.00;;;1.10;99.90;;;;;;5007050;28;20116;-83
2023/11/29 02:44:06;;;;;;;5.28;3.85;;;1.10;99.90;;;;;;4991137;28;20057;-82
2023/11/29 02:46:32;;;;;;;5.60;3.42;;;1.20;99.90;;;;;;5006953;28;20041;-81
2023/11/29 02:48:58;;;;;;;5.93;3.90;;;1.10;99.90;;;;;;4992502;28;20022;-86
2023/11/29 02:51:25;;;;;;;6.13;5.50;;;1.20;99.90;;;;;;4999670;28;20038;-84
2023/11/29 02:53:51;;;;;;;6.43;4.95;;;1.30;99.90;;;;;;5005772;28;20044;-87
2023/11/29 02:56:17;;;;;;;5.85;4.72;;;1.30;99.90;;;;;;5001770;28;20109;-84
2023/11/29 02:58:42;;;;;;;7.10;5.15;;;1.30;99.90;;;;;;4999994;28;20486;-88
2023/11/29 03:01:08;;;;;;;6.50;5.45;;;1.20;99.90;;;;;;5019958;28;20026;-86
2023/11/29 03:03:34;;;;;;;5.22;4.65;;;1.30;99.90;;;;;;4992032;28;20037;-86
2023/11/29 03:06:00;;;;;;;4.97;3.38;;;1.20;99.90;;;;;;4990079;28;20042;-83
2023/11/29 03:08:26;;;;;;;3.78;3.40;;;1.20;99.90;;;;;;5006924;28;20114;-87
2023/11/29 03:10:54;;;;;;;4.53;3.90;;;1.20;99.90;;;;;;5004875;28;20041;-85
2023/11/29 03:13:25;;;;;;;5.03;4.45;;;1.20;99.90;;;;;;5006994;28;20030;-84
2023/11/29 03:15:50;;;;;;;6.38;5.75;;;1.20;99.90;;;;;;4988534;28;20062;-83
2023/11/29 03:18:16;;;;;;;6.40;5.72;;;1.20;99.90;;;;;;4992890;28;20068;-86
2023/11/29 03:20:41;;;;;;;6.55;5.95;;;1.20;99.90;;;;;;4993815;28;20034;-83
2023/11/29 03:23:07;;;;;;;6.38;5.78;;;1.20;99.90;;;;;;5002425;28;20037;-82
2023/11/29 03:25:33;;;;;;;5.68;5.05;;;1.20;99.90;;;;;;5001833;28;20500;-82
2023/11/29 03:27:58;;;;;;;7.18;6.38;;;1.20;99.90;;;;;;5012669;28;20029;-87
2023/11/29 03:30:24;;;;;;;6.30;5.70;;;1.20;99.90;;;;;;4992123;28;20030;-85
2023/11/29 03:32:50;;;;;;;7.05;6.32;;;1.20;99.90;;;;;;4987519;28;20025;-85
2023/11/29 03:35:15;;;;;;;9.50;8.60;;;1.20;99.90;;;;;;5009268;28;20041;-86
2023/11/29 03:37:41;;;;;;;10.35;9.20;;;1.20;99.90;;;;;;5011436;28;20387;-83
2023/11/29 03:40:07;;;;;;;10.20;8.95;;;1.20;99.90;;;;;;5009028;28;20487;-85
2023/11/29 03:42:33;;;;;;;9.30;8.23;;;1.20;99.90;;;;;;5004036;28;20100;-82
2023/11/29 03:45:00;;;;;;;10.13;9.15;;;1.20;99.90;;;;;;5009911;28;20773;-82
2023/11/29 03:47:26;;;;;;;9.75;8.73;;;1.30;99.90;;;;;;5002936;28;20026;-85
2023/11/29 03:49:52;;;;;;;13.98;12.52;;;1.30;99.90;;;;;;5010283;28;20173;-84
2023/11/29 03:52:19;;;;;;;11.68;8.75;;;1.40;99.90;;;;;;4994513;28;20026;-85
2023/11/29 03:54:45;;;;;;;8.00;7.20;;;1.30;99.90;;;;;;4999622;28;20039;-84
2023/11/29 03:57:11;;;;;;;9.25;7.57;;;1.30;99.90;;;;;;5010768;28;20033;-83
2023/11/29 03:59:37;;;;;;;10.05;8.10;;;1.30;99.90;;;;;;5009708;28;20036;-84
2023/11/29 04:02:03;;;;;;;7.15;6.40;;;1.40;99.90;;;;;;4994516;28;20089;-84
2023/11/29 04:04:29;;;;;;;10.50;8.88;;;1.30;99.90;;;;;;4992843;28;20031;-83
2023/11/29 04:06:55;;;;;;;10.70;9.18;;;1.40;99.90;;;;;;5008448;28;20033;-83
2023/11/29 04:09:20;;;;;;;10.70;9.60;;;1.40;99.90;;;;;;4995275;28;20048;-85
2023/11/29 04:11:46;;;;;;;11.57;8.70;;;1.40;99.90;;;;;;4990960;28;20037;-83
2023/11/29 04:14:12;;;;;;;8.60;6.93;;;1.30;99.90;;;;;;5019878;28;20430;-85
2023/11/29 04:16:38;;;;;;;7.72;6.93;;;1.30;99.90;;;;;;5008243;28;20030;-86
2023/11/29 04:19:03;;;;;;;11.55;9.50;;;1.30;99.90;;;;;;5006834;28;20490;-84
2023/11/29 04:21:34;;;;;;;11.13;9.93;;;1.30;99.90;;;;;;5006898;28;20026;-84
2023/11/29 04:24:00;;;;;;;10.98;9.88;;;1.40;99.90;;;;;;5007434;28;20545;-84
2023/11/29 04:26:33;;;;;;;10.65;9.30;;;1.30;99.90;;;;;;4999935;28;20042;-82
2023/11/29 04:29:00;;;;;;;9.80;7.53;;;1.40;99.90;;;;;;4992680;28;20022;-84
2023/11/29 04:31:26;;;;;;;10.27;8.40;;;1.40;99.90;;;;;;4986905;28;20032;-84
2023/11/29 04:33:52;;;;;;;10.63;9.27;;;1.30;99.90;;;;;;5010754;28;20030;-82
2023/11/29 04:36:19;;;;;;;14.43;10.43;;;1.40;99.90;;;;;;4998806;28;20057;-83
2023/11/29 04:38:45;;;;;;;13.23;10.32;;;1.40;99.90;;;;;;5006165;28;20045;-85
2023/11/29 04:41:11;;;;;;;12.77;11.02;;;1.40;99.90;;;;;;5007777;28;20026;-83
2023/11/29 04:43:37;;;;;;;10.60;8.95;;;1.40;99.90;;;;;;4992681;28;20046;-84
2023/11/29 04:46:03;;;;;;;9.93;8.90;;;1.40;99.90;;;;;;5009717;28;20109;-85
2023/11/29 04:48:29;;;;;;;12.18;8.25;;;1.30;99.90;;;;;;5003306;28;20081;-82
2023/11/29 04:50:55;;;;;;;9.77;7.65;;;1.30;99.90;;;;;;5009161;28;20038;-83
2023/11/29 04:53:20;;;;;;;11.55;10.35;;;1.30;99.90;;;;;;5008015;28;20026;-85
2023/11/29 04:55:46;;;;;;;11.10;9.35;;;1.30;99.90;;;;;;5006628;28;20030;-85
2023/11/29 04:58:13;;;;;;;10.65;9.57;;;1.30;99.90;;;;;;4992599;28;20030;-82
2023/11/29 05:00:39;;;;;;;10.23;9.07;;;1.30;99.90;;;;;;5005134;28;20033;-82
2023/11/29 05:03:04;;;;;;;8.68;7.50;;;1.30;99.90;;;;;;5004964;28;20112;-84
2023/11/29 05:05:30;;;;;;;10.90;9.88;;;1.30;99.90;;;;;;4995848;28;20041;-87
2023/11/29 05:07:56;;;;;;;10.40;8.85;;;1.30;99.90;;;;;;5000693;28;20084;-83
2023/11/29 05:10:21;;;;;;;10.23;8.90;;;1.40;99.90;;;;;;4997665;28;20026;-83
2023/11/29 05:12:47;;;;;;;9.95;8.95;;;1.40;99.90;;;;;;5022211;28;20034;-84
2023/11/29 05:15:12;;;;;;;8.02;7.10;;;1.50;99.90;;;;;;5001907;28;20030;-84
2023/11/29 05:17:38;;;;;;;10.30;8.90;;;1.40;99.90;;;;;;5007272;28;20157;-82
2023/11/29 05:20:05;;;;;;;9.35;7.40;;;1.50;99.90;;;;;;5001542;28;20032;-82
2023/11/29 05:22:30;;;;;;;9.80;6.95;;;1.40;99.90;;;;;;5008229;28;20029;-83
2023/11/29 05:24:57;;;;;;;8.38;6.85;;;1.40;99.90;;;;;;4991109;28;20100;-82
2023/11/29 05:27:23;;;;;;;7.57;6.55;;;1.40;99.90;;;;;;5002980;28;20069;-84
2023/11/29 05:29:49;;;;;;;6.13;5.53;;;1.40;99.90;;;;;;5015547;28;20092;-83
2023/11/29 05:32:15;;;;;;;6.75;6.03;;;1.40;99.90;;;;;;4987292;28;20026;-83
2023/11/29 05:34:41;;;;;;;11.73;10.52;;;1.40;99.90;;;;;;5014325;28;20121;-86
2023/11/29 05:37:07;;;;;;;10.60;9.02;;;1.50;99.90;;;;;;4990237;28;20029;-83
2023/11/29 05:39:34;;;;;;;12.45;9.45;;;1.40;99.90;;;;;;4990761;28;20037;-84
2023/11/29 05:42:03;;;;;;;11.13;8.35;;;1.40;99.90;;;;;;5006057;28;20029;-82
2023/11/29 05:44:31;;;;;;;11.68;9.43;;;1.40;99.90;;;;;;5003951;28;20506;-84
2023/11/29 05:46:58;;;;;;;14.80;11.48;;;1.50;99.90;;;;;;4989693;28;20120;-83
2023/11/29 05:49:24;;;;;;;13.45;10.00;;;1.50;99.90;;;;;;4989101;28;20475;-81
2023/11/29 05:51:49;;;;;;;12.48;9.50;;;1.50;99.90;;;;;;5019199;28;20037;-83
2023/11/29 05:54:15;;;;;;;14.82;10.50;;;1.50;99.90;;;;;;5005686;28;20061;-84
2023/11/29 05:56:41;;;;;;;14.00;10.75;;;1.50;99.90;;;;;;5006542;28;20092;-84
2023/11/29 05:59:06;;;;;;;12.80;10.35;;;1.50;99.90;;;;;;5007602;28;20076;-81
2023/11/29 06:01:33;;;;;;;14.63;10.20;;;1.50;99.90;;;;;;5002089;28;20026;-83
2023/11/29 06:03:58;;;;;;;11.70;9.48;;;1.50;99.90;;;;;;5003946;28;20026;-86
2023/11/29 06:06:24;;;;;;;11.90;9.80;;;1.50;99.90;;;;;;4990009;28;20049;-84
2023/11/29 06:08:50;;;;;;;16.33;10.85;;;1.40;99.90;;;;;;4992907;28;20026;-84
2023/11/29 06:11:16;;;;;;;13.38;9.95;;;1.50;99.90;;;;;;4987974;28;20128;-83
2023/11/29 06:13:42;;;;;;;14.88;10.25;;;1.50;99.90;;;;;;4990568;28;20506;-83
2023/11/29 06:16:08;;;;;;;13.30;9.30;;;1.60;99.90;;;;;;5008108;28;20117;-84
2023/11/29 06:18:34;;;;;;;11.38;8.80;;;1.60;99.90;;;;;;5003639;28;20041;-84
2023/11/29 06:21:00;;;;;;;11.13;8.70;;;1.60;99.90;;;;;;5007348;28;20030;-83
2023/11/29 06:23:27;;;;;;;13.40;8.90;;;1.60;99.90;;;;;;5006315;28;20088;-83
2023/11/29 06:25:54;;;;;;;10.48;7.15;;;1.60;99.90;;;;;;5007215;28;20104;-84
2023/11/29 06:28:20;;;;;;;10.52;7.47;;;1.50;99.90;;;;;;5002945;28;20030;-84
2023/11/29 06:30:45;;;;;;;9.00;6.93;;;1.60;99.90;;;;;;5005324;28;20083;-84
2023/11/29 06:33:11;;;;;;;12.45;6.82;;;1.70;99.90;;;;;;5005003;28;20022;-84
2023/11/29 06:35:37;;;;;;;10.48;7.28;;;1.60;99.90;;;;;;5005488;28;20483;-85
2023/11/29 06:38:02;;;;;;;8.50;5.38;;;1.60;99.90;;;;;;5003008;28;20021;-84
2023/11/29 06:40:28;;;;;;;9.93;6.13;;;1.60;99.90;;;;;;5005624;28;20065;-84
2023/11/29 06:42:54;;;;;;;6.80;5.22;;;1.60;99.90;;;;;;4989126;28;20049;-83
2023/11/29 06:45:19;;;;;;;8.80;4.90;;;1.70;99.90;;;;;;4989139;28;20486;-83
2023/11/29 06:47:52;;;;;;;6.93;4.53;;;1.70;99.90;;;;;;5004188;28;20183;-84
2023/11/29 06:50:26;;;;;;;7.15;3.85;;;1.70;99.90;;;;;;5006481;28;20033;-83
2023/11/29 06:52:53;;;;;;;6.05;3.67;;;1.70;99.90;;;;;;5004082;28;20026;-84
2023/11/29 06:55:29;;;;;;;4.35;3.20;;;1.70;99.90;;;;;;4989838;28;20378;-82
2023/11/29 06:57:55;;;;;;;5.38;3.05;;;1.70;99.90;;;;;;4989522;28;20030;-84
2023/11/29 07:00:21;;;;;;;6.45;3.72;;;1.70;99.90;;;;;;5005884;28;20028;-84
2023/11/29 07:02:47;;;;;;;4.70;3.60;;;1.80;99.90;;;;;;4988555;28;20490;-85
2023/11/29 07:05:13;;;;;;;5.45;3.55;;;1.80;99.90;;;;;;5005466;28;20033;-84
2023/11/29 07:07:38;;;;;;;5.47;3.10;;;1.80;99.90;;;;;;4988753;28;20025;-84
2023/11/29 07:10:05;;;;;;;5.38;2.85;;;1.80;99.90;;;;;;5005838;28;20033;-84
2023/11/29 07:12:32;;;;;;;5.72;2.72;;;1.90;99.90;;;;;;5003051;28;20026;-84
2023/11/29 07:14:59;;;;;;;5.65;2.33;;;2.00;99.90;;;;;;5006117;28;20397;-82
2023/11/29 07:17:25;;;;;;;3.75;2.00;;;1.90;99.90;;;;;;5009289;28;20433;-83
2023/11/29 07:19:51;;;;;;;3.83;1.70;;;2.00;99.90;;;;;;5006348;28;20033;-84
2023/11/29 07:22:17;;;;;;;3.33;1.25;;;2.10;99.90;;;;;;5000869;28;20072;-83
2023/11/29 07:24:44;;;;;;;3.47;0.90;;;2.00;99.90;;;;;;5005138;28;20038;-82
2023/11/29 07:27:10;;;;;;;5.03;1.30;;;2.00;99.90;;;;;;5004152;28;20493;-85
2023/11/29 07:29:37;;;;;;;4.07;1.40;;;2.20;99.90;;;;;;5004576;28;20041;-82
2023/11/29 07:32:06;;;;;;;3.03;1.02;;;2.10;99.90;;;;;;4990152;28;20026;-83
2023/11/29 07:34:32;;;;;;;4.33;1.37;;;2.30;99.90;;;;;;5005692;28;20235;-84
2023/11/29 07:36:57;;;;;;;5.13;0.75;;;2.30;99.90;;;;;;5007342;28;20478;-84
2023/11/29 07:39:26;;;;;;;2.42;0.80;;;2.30;99.90;;;;;;5006923;28;20113;-83
2023/11/29 07:41:52;;;;;;;2.90;0.65;;;2.30;99.90;;;;;;4987333;28;20057;-84
2023/11/29 07:44:21;;;;;;;3.80;0.70;;;2.30;99.90;;;;;;4988838;28;20066;-85
2023/11/29 07:46:47;;;;;;;3.13;0.55;;;2.30;99.90;;;;;;5000711;28;20034;-83
2023/11/29 07:49:13;;;;;;;6.65;0.68;;;2.30;99.90;;;;;;5002814;28;20085;-84
2023/11/29 07:51:40;;;;;;;5.50;0.73;;;2.40;99.90;;;;;;5001900;28;20459;-83
2023/11/29 07:54:06;;;;;;;5.43;0.40;;;2.50;99.90;;;;;;5005831;28;20085;-83
2023/11/29 07:56:32;;;;;;;2.65;0.30;;;2.40;99.90;;;;;;4993245;28;20626;-83
2023/11/29 07:58:58;;;;;;;5.93;0.68;;;2.30;99.90;;;;;;5010815;28;20034;-84
2023/11/29 08:01:24;;;;;;;2.53;0.30;;;2.40;99.90;;;;;;4989477;28;20034;-83
2023/11/29 08:03:49;;;;;;;3.08;0.30;;;2.30;99.90;;;;;;5014901;28;20497;-83
2023/11/29 08:06:16;;;;;;;2.03;0.30;;;2.30;99.90;;;;;;5006226;28;20033;-82
2023/11/29 08:08:42;;;;;;;3.85;0.45;;;2.30;99.90;;;;;;5006448;28;20477;-81
2023/11/29 08:11:07;;;;;;;2.25;0.30;;;2.20;99.90;;;;;;4992214;28;20037;-82
2023/11/29 08:13:33;;;;;;;1.00;0.20;;;2.20;99.90;;;;;;4992236;28;20026;-84
2023/11/29 08:15:59;;;;;;;4.22;0.40;;;2.30;99.90;;;;;;5007682;28;20388;-84
2023/11/29 08:18:25;;;;;;;1.58;0.22;;;2.30;99.90;;;;;;4990627;28;20030;-82
2023/11/29 08:20:59;;;;;;;3.05;0.30;;;2.30;99.90;;;;;;4991002;28;20026;-84
2023/11/29 08:23:24;;;;;;;2.80;0.30;;;2.30;99.90;;;;;;5007076;28;20034;-83
2023/11/29 08:25:50;;;;;;;1.48;0.20;;;2.40;99.90;;;;;;4997531;28;20529;-83
2023/11/29 08:28:16;;;;;;;2.53;0.22;;;2.30;99.90;;;;;;5022342;28;20026;-82
2023/11/29 08:30:42;;;;;;;1.25;0.30;;;2.30;99.90;;;;;;5008676;28;20430;-88
2023/11/29 08:33:08;;;;;;;4.45;0.30;;;2.50;99.90;;;;;;5010523;28;20025;-84
2023/11/29 08:35:34;;;;;;;3.67;0.30;;;2.50;99.90;;;;;;5007915;28;20212;-81
2023/11/29 08:38:00;;;;;;;1.75;0.38;;;2.50;99.90;;;;;;5008157;28;20037;-83
2023/11/29 08:40:26;;;;;;;2.58;0.50;;;2.50;99.90;;;;;;4989453;28;20042;-84
2023/11/29 08:42:52;;;;;;;3.35;0.52;;;2.60;99.90;;;;;;4986752;28;20129;-82
2023/11/29 08:45:18;;;;;;;2.33;0.60;;;2.60;99.90;;;;;;5007009;28;20073;-83
2023/11/29 08:47:44;;;;;;;2.38;0.30;;;2.60;99.90;;;;;;4991386;28;20045;-81
2023/11/29 08:50:10;;;;;;;4.03;0.50;;;2.60;99.90;;;;;;4997290;28;20406;-83
2023/11/29 08:52:36;;;;;;;3.38;0.40;;;2.60;99.90;;;;;;4989100;28;20602;-84
2023/11/29 08:55:02;;;;;;;6.55;0.50;;;2.60;99.90;;;;;;5005274;28;20026;-84
2023/11/29 08:57:29;;;;;;;1.83;0.50;;;2.50;99.90;;;;;;5004054;28;20037;-82
2023/11/29 08:59:55;;;;;;;4.72;0.50;;;2.50;99.90;;;;;;5003821;28;20030;-83
2023/11/29 09:02:23;;;;;;;2.00;0.50;;;2.50;99.90;;;;;;5009232;28;20022;-84
2023/11/29 09:04:49;;;;;;;3.28;0.60;;;2.60;99.90;;;;;;5003309;28;20128;-83
2023/11/29 09:07:16;;;;;;;3.45;0.80;;;2.70;99.90;;;;;;5003730;28;20040;-84
2023/11/29 09:09:45;;;;;;;4.60;0.65;;;2.70;99.90;;;;;;5019421;28;20037;-83
2023/11/29 09:12:12;;;;;;;5.13;0.70;;;2.70;99.90;;;;;;5002602;28;20034;-84
2023/11/29 09:14:38;;;;;;;3.53;0.77;;;2.70;99.90;;;;;;5001620;28;20169;-84
2023/11/29 09:17:04;;;;;;;2.63;0.70;;;2.70;99.90;;;;;;5003817;28;20034;-84
2023/11/29 09:19:34;;;;;;;3.38;0.55;;;2.80;99.90;;;;;;4986290;28;20077;-84
2023/11/29 09:22:07;;;;;;;3.78;0.80;;;2.90;99.90;;;;;;5001049;28;20026;-83
2023/11/29 09:24:33;;;;;;;5.20;0.85;;;2.90;99.90;;;;;;4987269;28;20038;-82
2023/11/29 09:26:59;;;;;;;4.60;0.85;;;3.00;99.90;;;;;;5003587;28;20096;-83
2023/11/29 09:29:28;;;;;;;5.07;0.90;;;3.10;99.90;;;;;;5017423;28;20034;-82
2023/11/29 09:31:54;;;;;;;2.45;0.63;;;3.10;99.90;;;;;;4986478;28;20379;-83
2023/11/29 09:34:24;;;;;;;6.90;0.90;;;3.10;99.90;;;;;;5003469;28;20046;-81
2023/11/29 09:36:50;;;;;;;4.63;1.08;;;3.00;99.90;;;;;;5003166;28;20041;-82
2023/11/29 09:39:17;;;;;;;4.22;0.80;;;3.00;99.90;;;;;;4985837;28;20121;-83
2023/11/29 09:41:46;;;;;;;2.65;0.73;;;3.00;99.90;;;;;;4984964;28;20074;-81
2023/11/29 09:44:13;;;;;;;6.25;1.10;;;3.10;99.90;;;;;;5000738;28;20501;-81
2023/11/29 09:46:39;;;;;;;2.33;0.80;;;3.20;99.90;;;;;;4987062;28;20121;-82
2023/11/29 09:49:05;;;;;;;5.25;1.30;;;3.20;99.90;;;;;;4986109;28;20026;-81
2023/11/29 09:51:32;;;;;;;2.63;0.60;;;3.10;99.90;;;;;;5000457;28;20486;-85
2023/11/29 09:53:57;;;;;;;4.18;0.95;;;3.30;99.90;;;;;;5016968;28;20049;-81
2023/11/29 09:56:23;;;;;;;2.85;0.70;;;3.30;99.90;;;;;;5000490;28;20030;-81
2023/11/29 09:58:50;;;;;;;3.97;1.20;;;3.30;99.90;;;;;;5002543;28;20037;-83
2023/11/29 10:01:16;;;;;;;4.07;0.90;;;3.30;99.90;;;;;;4987283;28;20147;-81
2023/11/29 10:03:42;;;;;;;4.07;0.90;;;3.30;99.90;;;;;;5000423;28;20034;-82
2023/11/29 10:06:08;;;;;;;3.25;0.90;;;3.30;99.90;;;;;;5000662;28;20129;-83
2023/11/29 10:08:34;;;;;;;3.83;0.70;;;3.40;99.90;;;;;;4987330;28;20048;-82
2023/11/29 10:11:01;;;;;;;5.43;0.90;;;3.30;99.90;;;;;;4985789;28;20034;-81
2023/11/29 10:13:28;;;;;;;4.03;0.77;;;3.40;99.90;;;;;;4999922;28;20023;-83
2023/11/29 10:15:55;;;;;;;2.58;0.73;;;3.30;99.90;;;;;;5003263;28;20034;-81
2023/11/29 10:18:21;;;;;;;6.43;1.20;;;3.30;99.90;;;;;;5001872;28;20027;-83
2023/11/29 10:20:51;;;;;;;4.07;0.70;;;3.20;99.90;;;;;;4985089;28;20041;-83
2023/11/29 10:23:17;;;;;;;2.97;0.70;;;3.20;99.90;;;;;;5004092;28;20034;-83
2023/11/29 10:25:46;;;;;;;3.17;0.80;;;3.20;99.90;;;;;;5004023;28;20034;-81
2023/11/29 10:28:11;;;;;;;2.05;0.68;;;3.20;99.90;;;;;;5002036;28;20478;-82
2023/11/29 10:30:38;;;;;;;1.70;0.57;;;3.10;99.90;;;;;;5014534;28;20034;-83
2023/11/29 10:33:05;;;;;;;4.15;0.70;;;3.20;99.90;;;;;;4998657;28;20087;-83
2023/11/29 10:35:35;;;;;;;2.92;0.70;;;3.20;99.90;;;;;;5002384;28;20109;-83
2023/11/29 10:38:06;;;;;;;2.30;0.57;;;3.30;99.90;;;;;;4985282;28;20041;-82
2023/11/29 10:40:32;;;;;;;3.88;0.80;;;3.20;99.90;;;;;;4985543;28;20045;-84
2023/11/29 10:43:03;;;;;;;3.22;0.60;;;3.30;99.90;;;;;;4984595;28;20030;-85
2023/11/29 10:45:30;;;;;;;5.47;0.93;;;3.20;99.90;;;;;;5000511;28;20056;-83
2023/11/29 10:48:00;;;;;;;2.90;0.60;;;3.30;99.90;;;;;;4988831;28;20140;-84
2023/11/29 10:50:28;;;;;;;3.47;0.63;;;3.40;99.90;;;;;;4986511;28;20033;-84
2023/11/29 10:52:54;;;;;;;2.47;1.00;;;3.50;99.90;;;;;;4984425;28;20096;-84
2023/11/29 10:55:21;;;;;;;3.90;0.70;;;3.50;99.90;;;;;;5001760;28;20038;-84
2023/11/29 10:57:59;;;;;;;4.20;1.00;;;3.70;99.90;;;;;;4987619;28;20475;-83
2023/11/29 11:00:28;;;;;;;5.22;0.60;;;3.60;99.90;;;;;;5003294;28;20478;-84
2023/11/29 11:02:55;;;;;;;3.00;0.68;;;3.50;99.90;;;;;;5002944;28;20115;-83
2023/11/29 11:05:24;;;;;;;2.47;0.63;;;3.40;99.90;;;;;;4987865;28;20050;-84
2023/11/29 11:07:52;;;;;;;4.25;0.75;;;3.30;99.90;;;;;;4987470;28;20100;-85
2023/11/29 11:10:22;;;;;;;2.75;0.60;;;3.30;99.90;;;;;;5003472;28;20485;-84
2023/11/29 11:12:48;;;;;;;3.33;0.57;;;3.30;99.90;;;;;;5002808;28;20026;-85
2023/11/29 11:15:24;;;;;;;2.75;0.50;;;3.30;99.90;;;;;;4983430;28;20211;-85
2023/11/29 11:18:01;;;;;;;4.22;0.50;;;3.30;99.90;;;;;;5002973;28;20374;-84
2023/11/29 11:20:51;;;;;;;6.40;0.70;;;3.40;99.90;;;;;;4991139;28;20457;-85
2023/11/29 11:23:21;;;;;;;1.45;0.50;;;3.30;99.90;;;;;;5004459;28;20034;-83
2023/11/29 11:25:47;;;;;;;3.97;0.50;;;3.20;99.90;;;;;;5006209;28;20068;-83
2023/11/29 11:28:34;;;;;;;4.45;0.60;;;3.20;99.90;;;;;;4988679;28;20490;-84
2023/11/29 11:31:02;;;;;;;2.78;0.50;;;3.30;99.90;;;;;;5003904;28;20386;-84
2023/11/29 11:33:59;;;;;;;4.85;1.08;;;3.30;99.90;;;;;;4993460;28;20024;-85
2023/11/29 11:36:26;;;;;;;2.40;0.57;;;3.30;99.90;;;;;;4991823;28;20143;-82
2023/11/29 11:38:59;;;;;;;3.22;1.15;;;3.30;99.90;;;;;;5003125;28;20026;-84
2023/11/29 11:41:26;;;;;;;2.67;0.47;;;3.40;99.90;;;;;;5006953;28;20509;-84
2023/11/29 11:43:52;;;;;;;1.70;0.40;;;3.50;99.90;;;;;;5008343;28;20074;-84
2023/11/29 11:46:19;;;;;;;2.60;0.40;;;3.60;99.90;;;;;;5010178;28;20259;-84
2023/11/29 11:48:45;;;;;;;4.93;0.50;;;3.70;99.90;;;;;;4994615;28;20048;-84
2023/11/29 11:51:11;;;;;;;1.15;0.40;;;3.90;99.90;;;;;;4996182;28;20030;-85
2023/11/29 11:53:43;;;;;;;2.53;0.50;;;4.00;99.90;;;;;;4988284;28;20026;-83
2023/11/29 11:56:57;;;;;;;1.58;0.70;;;4.10;99.90;;;;;;5007387;28;20069;-82
2023/11/29 11:59:23;;;;;;;4.30;0.40;;;3.80;99.90;;;;;;4928629;29;20036;-84
2023/11/29 12:01:59;;;;;;;1.48;0.40;;;3.60;99.90;;;;;;4915205;28;20044;-83
2023/11/29 12:04:26;;;;;;;1.30;0.40;;;3.50;99.90;;;;;;4914451;29;20099;-83
2023/11/29 12:06:52;;;;;;;1.27;0.30;;;3.50;99.90;;;;;;4930000;29;20036;-83
2023/11/29 12:09:19;;;;;;;2.03;0.40;;;3.50;99.90;;;;;;4929027;29;20086;-84
2023/11/29 12:11:46;;;;;;;1.08;0.30;;;3.60;99.90;;;;;;4926759;29;20056;-84
2023/11/29 12:14:15;;;;;;;2.25;0.30;;;3.60;99.90;;;;;;4930224;29;20084;-84
2023/11/29 12:16:41;;;;;;;1.30;0.35;;;3.70;99.90;;;;;;4930660;29;20070;-85
2023/11/29 12:19:07;;;;;;;1.20;0.40;;;3.70;99.90;;;;;;4917993;29;20059;-84
2023/11/29 12:21:33;;;;;;;1.95;0.30;;;3.70;99.90;;;;;;4918458;29;20052;-83
2023/11/29 12:24:04;;;;;;;1.17;0.35;;;3.60;99.90;;;;;;4928354;29;20044;-81
2023/11/29 12:26:30;;;;;;;1.88;0.40;;;3.60;99.90;;;;;;4926522;29;20050;-82
2023/11/29 12:28:59;;;;;;;1.60;0.40;;;3.60;99.90;;;;;;4927110;29;20040;-83
2023/11/29 12:31:25;;;;;;;2.70;0.30;;;3.60;99.90;;;;;;4926588;29;20167;-83
2023/11/29 12:33:58;;;;;;;2.13;0.50;;;3.50;99.90;;;;;;4915811;29;20183;-82
2023/11/29 12:36:24;;;;;;;2.03;0.43;;;3.50;99.90;;;;;;4957894;28;20048;-85
2023/11/29 12:38:50;;;;;;;4.18;0.60;;;3.50;99.90;;;;;;5020708;28;20587;-83
2023/11/29 12:41:16;;;;;;;2.30;0.30;;;3.40;99.90;;;;;;5001840;28;20041;-83
2023/11/29 12:43:41;;;;;;;1.58;0.30;;;3.40;99.90;;;;;;5003803;28;20057;-82
2023/11/29 12:46:07;;;;;;;2.22;0.40;;;3.40;99.90;;;;;;5000045;28;20243;-83
2023/11/29 12:48:34;;;;;;;3.20;0.38;;;3.50;99.90;;;;;;4986414;28;20512;-83
2023/11/29 12:51:00;;;;;;;1.10;0.40;;;3.50;99.90;;;;;;5005060;28;20118;-84
2023/11/29 12:53:25;;;;;;;1.60;0.40;;;3.60;99.90;;;;;;4985188;28;20029;-83